CheckWX is a tool to help pilots better visualize weather data.  It is not intended as a substitute for an official pre-flight weather briefing.

14:02:30 UTC

I35 METAR
Tucker-Guthrie Memorial Airport
Harlan, Kentucky, USA
Current

28 mins ago

KI35 261335Z AUTO 26004KT 10SM OVC029 00/M04 A3007 RMK AO2 T00031042
Observed
Jan-26 @ 13:35 UTC
Wind
  • 260° at 4 KTS
Visibility
10 SM
Flight Rules
MVFR
Cloud Levels
  • Overcast at 2,900' AGL
Temperature
C / 32°F
Dewpoint
-4°C / 25°F
Humidity
75%
Altimeter
30.07" Hg
Pressure
1018.32 hPa
Previous

48 mins ago

KI35 261315Z AUTO 26004KT 10SM OVC027 00/M04 A3007 RMK AO2 T00021042
Observed
Jan-26 @ 13:15 UTC
Wind
  • 260° at 4 KTS
Visibility
10 SM
Flight Rules
MVFR
Cloud Levels
  • Overcast at 2,700' AGL
Temperature
C / 32°F
Dewpoint
-4°C / 25°F
Humidity
75%
Altimeter
30.07" Hg
Pressure
1018.32 hPa
Previous

1 hour ago

KI35 261255Z AUTO 27005KT 10SM OVC025 00/M04 A3008 RMK AO2 T00011040
Observed
Jan-26 @ 12:55 UTC
Wind
  • 270° at 5 KTS
Visibility
10 SM
Flight Rules
MVFR
Cloud Levels
  • Overcast at 2,500' AGL
Temperature
C / 32°F
Dewpoint
-4°C / 25°F
Humidity
75%
Altimeter
30.08" Hg
Pressure
1018.62 hPa